sensor_id;sensor_type;location;lat;lon;timestamp;temperature;humidity
40622;DHT22;26324;52.040;11.528;2022-10-16T00:01:21;15.50;86.40
40622;DHT22;26324;52.040;11.528;2022-10-16T00:03:48;15.50;86.60
40622;DHT22;26324;52.040;11.528;2022-10-16T00:06:16;15.40;87.10
40622;DHT22;26324;52.040;11.528;2022-10-16T00:08:42;15.40;87.30
40622;DHT22;26324;52.040;11.528;2022-10-16T00:11:15;15.40;87.60
40622;DHT22;26324;52.040;11.528;2022-10-16T00:13:43;15.30;87.90
40622;DHT22;26324;52.040;11.528;2022-10-16T00:16:10;15.30;88.00
40622;DHT22;26324;52.040;11.528;2022-10-16T00:18:36;15.30;88.10
40622;DHT22;26324;52.040;11.528;2022-10-16T00:21:17;15.30;88.10
40622;DHT22;26324;52.040;11.528;2022-10-16T00:23:43;15.20;87.90
40622;DHT22;26324;52.040;11.528;2022-10-16T00:26:12;15.30;87.80
40622;DHT22;26324;52.040;11.528;2022-10-16T00:28:38;15.20;87.80
40622;DHT22;26324;52.040;11.528;2022-10-16T00:31:06;15.20;87.50
40622;DHT22;26324;52.040;11.528;2022-10-16T00:33:31;15.10;87.10
40622;DHT22;26324;52.040;11.528;2022-10-16T00:35:58;15.10;87.10
40622;DHT22;26324;52.040;11.528;2022-10-16T00:38:24;15.20;86.80
40622;DHT22;26324;52.040;11.528;2022-10-16T00:40:49;15.20;86.10
40622;DHT22;26324;52.040;11.528;2022-10-16T00:46:08;15.10;85.10
40622;DHT22;26324;52.040;11.528;2022-10-16T00:48:36;15.20;84.50
40622;DHT22;26324;52.040;11.528;2022-10-16T00:51:02;15.20;84.10
40622;DHT22;26324;52.040;11.528;2022-10-16T00:53:28;15.10;83.30
40622;DHT22;26324;52.040;11.528;2022-10-16T00:55:54;15.20;82.90
40622;DHT22;26324;52.040;11.528;2022-10-16T00:58:20;15.20;82.40
40622;DHT22;26324;52.040;11.528;2022-10-16T01:00:46;15.20;81.90
40622;DHT22;26324;52.040;11.528;2022-10-16T01:03:33;15.20;81.50
40622;DHT22;26324;52.040;11.528;2022-10-16T01:08:49;15.20;80.60
40622;DHT22;26324;52.040;11.528;2022-10-16T01:11:41;15.20;80.50
40622;DHT22;26324;52.040;11.528;2022-10-16T01:17:13;15.10;80.70
40622;DHT22;26324;52.040;11.528;2022-10-16T01:20:14;15.10;80.70
40622;DHT22;26324;52.040;11.528;2022-10-16T01:23:07;15.10;80.60
40622;DHT22;26324;52.040;11.528;2022-10-16T01:25:55;15.10;80.60
40622;DHT22;26324;52.040;11.528;2022-10-16T01:28:31;15.10;80.80
40622;DHT22;26324;52.040;11.528;2022-10-16T01:30:58;15.10;80.90
40622;DHT22;26324;52.040;11.528;2022-10-16T01:33:30;15.10;80.70
40622;DHT22;26324;52.040;11.528;2022-10-16T01:36:05;14.90;81.30
40622;DHT22;26324;52.040;11.528;2022-10-16T01:38:36;15.00;81.40
40622;DHT22;26324;52.040;11.528;2022-10-16T01:41:20;15.00;81.40
40622;DHT22;26324;52.040;11.528;2022-10-16T01:43:49;14.90;81.60
40622;DHT22;26324;52.040;11.528;2022-10-16T01:46:20;14.80;82.20
40622;DHT22;26324;52.040;11.528;2022-10-16T01:48:47;14.70;82.40
40622;DHT22;26324;52.040;11.528;2022-10-16T01:51:15;14.80;82.30
40622;DHT22;26324;52.040;11.528;2022-10-16T01:53:43;14.90;82.10
40622;DHT22;26324;52.040;11.528;2022-10-16T01:56:13;14.90;82.00
40622;DHT22;26324;52.040;11.528;2022-10-16T01:58:47;14.90;81.90
40622;DHT22;26324;52.040;11.528;2022-10-16T02:01:17;14.80;82.00
40622;DHT22;26324;52.040;11.528;2022-10-16T02:03:44;14.80;81.80
40622;DHT22;26324;52.040;11.528;2022-10-16T02:06:12;14.80;81.70
40622;DHT22;26324;52.040;11.528;2022-10-16T02:08:38;14.80;81.70
40622;DHT22;26324;52.040;11.528;2022-10-16T02:11:05;14.70;81.90
40622;DHT22;26324;52.040;11.528;2022-10-16T02:13:36;14.60;82.10
40622;DHT22;26324;52.040;11.528;2022-10-16T02:16:03;14.50;82.40
40622;DHT22;26324;52.040;11.528;2022-10-16T02:18:29;14.50;82.60
40622;DHT22;26324;52.040;11.528;2022-10-16T02:21:16;14.50;82.50
40622;DHT22;26324;52.040;11.528;2022-10-16T02:24:06;14.60;82.30
40622;DHT22;26324;52.040;11.528;2022-10-16T02:27:06;14.50;82.50
40622;DHT22;26324;52.040;11.528;2022-10-16T02:29:39;14.40;82.70
40622;DHT22;26324;52.040;11.528;2022-10-16T02:32:07;14.40;82.90
40622;DHT22;26324;52.040;11.528;2022-10-16T02:34:36;14.40;83.10
40622;DHT22;26324;52.040;11.528;2022-10-16T02:37:03;14.40;83.00
40622;DHT22;26324;52.040;11.528;2022-10-16T02:39:30;14.40;83.20
40622;DHT22;26324;52.040;11.528;2022-10-16T02:41:56;14.40;83.30
40622;DHT22;26324;52.040;11.528;2022-10-16T02:44:21;14.40;83.50
40622;DHT22;26324;52.040;11.528;2022-10-16T02:46:47;14.40;83.50
40622;DHT22;26324;52.040;11.528;2022-10-16T02:49:12;14.50;83.50
40622;DHT22;26324;52.040;11.528;2022-10-16T02:51:38;14.50;83.50
40622;DHT22;26324;52.040;11.528;2022-10-16T02:54:03;14.60;83.80
40622;DHT22;26324;52.040;11.528;2022-10-16T02:56:29;14.60;84.30
40622;DHT22;26324;52.040;11.528;2022-10-16T02:58:56;14.70;84.20
40622;DHT22;26324;52.040;11.528;2022-10-16T03:01:21;14.80;84.30
40622;DHT22;26324;52.040;11.528;2022-10-16T03:03:47;14.80;84.60
40622;DHT22;26324;52.040;11.528;2022-10-16T03:06:12;14.90;85.50
40622;DHT22;26324;52.040;11.528;2022-10-16T03:08:38;14.90;85.70
40622;DHT22;26324;52.040;11.528;2022-10-16T03:11:04;14.90;85.70
40622;DHT22;26324;52.040;11.528;2022-10-16T03:13:29;15.00;86.20
40622;DHT22;26324;52.040;11.528;2022-10-16T03:15:55;15.00;86.10
40622;DHT22;26324;52.040;11.528;2022-10-16T03:18:20;15.10;86.20
40622;DHT22;26324;52.040;11.528;2022-10-16T03:20:46;15.10;86.20
40622;DHT22;26324;52.040;11.528;2022-10-16T03:23:11;15.10;86.10
40622;DHT22;26324;52.040;11.528;2022-10-16T03:25:37;15.10;86.20
40622;DHT22;26324;52.040;11.528;2022-10-16T03:28:03;15.10;86.30
40622;DHT22;26324;52.040;11.528;2022-10-16T03:30:28;15.20;86.30
40622;DHT22;26324;52.040;11.528;2022-10-16T03:32:54;15.20;86.20
40622;DHT22;26324;52.040;11.528;2022-10-16T03:35:21;15.20;86.10
40622;DHT22;26324;52.040;11.528;2022-10-16T03:37:46;15.20;86.10
40622;DHT22;26324;52.040;11.528;2022-10-16T03:40:12;15.20;86.10
40622;DHT22;26324;52.040;11.528;2022-10-16T03:42:37;15.30;86.10
40622;DHT22;26324;52.040;11.528;2022-10-16T03:45:04;15.20;85.90
40622;DHT22;26324;52.040;11.528;2022-10-16T03:47:29;15.20;86.00
40622;DHT22;26324;52.040;11.528;2022-10-16T03:49:55;15.20;86.20
40622;DHT22;26324;52.040;11.528;2022-10-16T03:52:21;15.20;86.20
40622;DHT22;26324;52.040;11.528;2022-10-16T03:54:47;15.20;86.30
40622;DHT22;26324;52.040;11.528;2022-10-16T03:57:12;15.10;86.30
40622;DHT22;26324;52.040;11.528;2022-10-16T03:59:38;15.20;86.40
40622;DHT22;26324;52.040;11.528;2022-10-16T04:02:03;15.20;86.40
40622;DHT22;26324;52.040;11.528;2022-10-16T04:04:29;15.30;86.40
40622;DHT22;26324;52.040;11.528;2022-10-16T04:06:54;15.30;86.20
40622;DHT22;26324;52.040;11.528;2022-10-16T04:09:20;15.30;86.20
40622;DHT22;26324;52.040;11.528;2022-10-16T04:11:45;15.30;86.20
40622;DHT22;26324;52.040;11.528;2022-10-16T04:14:11;15.40;86.20
40622;DHT22;26324;52.040;11.528;2022-10-16T04:16:36;15.40;86.20
40622;DHT22;26324;52.040;11.528;2022-10-16T04:19:02;15.30;86.40
40622;DHT22;26324;52.040;11.528;2022-10-16T04:21:28;15.30;86.40
40622;DHT22;26324;52.040;11.528;2022-10-16T04:23:53;15.30;86.50
40622;DHT22;26324;52.040;11.528;2022-10-16T04:26:19;15.30;86.60
40622;DHT22;26324;52.040;11.528;2022-10-16T04:28:44;15.30;86.70
40622;DHT22;26324;52.040;11.528;2022-10-16T04:31:10;15.30;86.70
40622;DHT22;26324;52.040;11.528;2022-10-16T04:33:35;15.30;86.70
40622;DHT22;26324;52.040;11.528;2022-10-16T04:36:02;15.30;86.80
40622;DHT22;26324;52.040;11.528;2022-10-16T04:38:28;15.30;86.80
40622;DHT22;26324;52.040;11.528;2022-10-16T04:40:53;15.20;87.00
40622;DHT22;26324;52.040;11.528;2022-10-16T04:43:19;15.20;87.10
40622;DHT22;26324;52.040;11.528;2022-10-16T04:45:45;15.30;87.00
40622;DHT22;26324;52.040;11.528;2022-10-16T04:48:11;15.20;86.90
40622;DHT22;26324;52.040;11.528;2022-10-16T04:50:36;15.20;86.90
40622;DHT22;26324;52.040;11.528;2022-10-16T04:53:02;15.10;86.80
40622;DHT22;26324;52.040;11.528;2022-10-16T04:55:27;15.10;87.00
40622;DHT22;26324;52.040;11.528;2022-10-16T04:57:53;15.00;87.10
40622;DHT22;26324;52.040;11.528;2022-10-16T05:00:19;14.90;87.20
40622;DHT22;26324;52.040;11.528;2022-10-16T05:02:44;14.70;87.50
40622;DHT22;26324;52.040;11.528;2022-10-16T05:05:10;14.70;87.70
40622;DHT22;26324;52.040;11.528;2022-10-16T05:07:35;14.60;87.90
40622;DHT22;26324;52.040;11.528;2022-10-16T05:10:01;14.50;88.00
40622;DHT22;26324;52.040;11.528;2022-10-16T05:12:27;14.50;88.10
40622;DHT22;26324;52.040;11.528;2022-10-16T05:14:52;14.40;88.40
40622;DHT22;26324;52.040;11.528;2022-10-16T05:17:18;14.30;88.60
40622;DHT22;26324;52.040;11.528;2022-10-16T05:19:43;14.30;88.90
40622;DHT22;26324;52.040;11.528;2022-10-16T05:22:09;14.30;89.20
40622;DHT22;26324;52.040;11.528;2022-10-16T05:24:35;14.30;89.50
40622;DHT22;26324;52.040;11.528;2022-10-16T05:27:01;14.30;89.70
40622;DHT22;26324;52.040;11.528;2022-10-16T05:29:27;14.30;89.60
40622;DHT22;26324;52.040;11.528;2022-10-16T05:31:53;14.30;89.60
40622;DHT22;26324;52.040;11.528;2022-10-16T05:34:20;14.20;89.60
40622;DHT22;26324;52.040;11.528;2022-10-16T05:36:45;14.30;89.60
40622;DHT22;26324;52.040;11.528;2022-10-16T05:39:13;14.20;89.50
40622;DHT22;26324;52.040;11.528;2022-10-16T05:41:39;14.20;89.40
40622;DHT22;26324;52.040;11.528;2022-10-16T05:44:05;14.20;89.60
40622;DHT22;26324;52.040;11.528;2022-10-16T05:46:31;14.10;89.70
40622;DHT22;26324;52.040;11.528;2022-10-16T05:48:57;14.10;89.90
40622;DHT22;26324;52.040;11.528;2022-10-16T05:51:23;14.30;90.00
40622;DHT22;26324;52.040;11.528;2022-10-16T05:53:48;14.40;90.00
40622;DHT22;26324;52.040;11.528;2022-10-16T05:56:14;14.40;90.00
40622;DHT22;26324;52.040;11.528;2022-10-16T05:58:40;14.40;89.90
40622;DHT22;26324;52.040;11.528;2022-10-16T06:01:10;14.40;89.90
40622;DHT22;26324;52.040;11.528;2022-10-16T06:03:36;14.50;89.80
40622;DHT22;26324;52.040;11.528;2022-10-16T06:06:17;14.50;89.70
40622;DHT22;26324;52.040;11.528;2022-10-16T06:08:43;14.50;89.60
40622;DHT22;26324;52.040;11.528;2022-10-16T06:11:12;14.50;89.50
40622;DHT22;26324;52.040;11.528;2022-10-16T06:13:38;14.60;89.40
40622;DHT22;26324;52.040;11.528;2022-10-16T06:16:08;14.60;89.30
40622;DHT22;26324;52.040;11.528;2022-10-16T06:18:33;14.60;89.20
40622;DHT22;26324;52.040;11.528;2022-10-16T06:20:59;14.80;89.10
40622;DHT22;26324;52.040;11.528;2022-10-16T06:23:25;14.80;89.00
40622;DHT22;26324;52.040;11.528;2022-10-16T06:25:50;14.80;88.70
40622;DHT22;26324;52.040;11.528;2022-10-16T06:28:16;14.90;88.70
40622;DHT22;26324;52.040;11.528;2022-10-16T06:30:42;14.90;88.60
40622;DHT22;26324;52.040;11.528;2022-10-16T06:33:11;14.90;88.40
40622;DHT22;26324;52.040;11.528;2022-10-16T06:35:37;15.00;88.20
40622;DHT22;26324;52.040;11.528;2022-10-16T06:38:02;15.10;88.10
40622;DHT22;26324;52.040;11.528;2022-10-16T06:40:28;15.10;88.00
40622;DHT22;26324;52.040;11.528;2022-10-16T06:42:57;15.10;87.80
40622;DHT22;26324;52.040;11.528;2022-10-16T06:45:22;15.10;87.70
40622;DHT22;26324;52.040;11.528;2022-10-16T06:47:48;15.10;87.80
40622;DHT22;26324;52.040;11.528;2022-10-16T06:50:14;15.20;87.60
40622;DHT22;26324;52.040;11.528;2022-10-16T06:52:39;15.20;87.50
40622;DHT22;26324;52.040;11.528;2022-10-16T06:55:05;15.30;87.30
40622;DHT22;26324;52.040;11.528;2022-10-16T06:57:31;15.30;87.20
40622;DHT22;26324;52.040;11.528;2022-10-16T06:59:56;15.30;87.00
40622;DHT22;26324;52.040;11.528;2022-10-16T07:02:22;15.40;87.10
40622;DHT22;26324;52.040;11.528;2022-10-16T07:04:47;15.50;86.80
40622;DHT22;26324;52.040;11.528;2022-10-16T07:07:13;15.60;86.30
40622;DHT22;26324;52.040;11.528;2022-10-16T07:09:40;15.60;86.10
40622;DHT22;26324;52.040;11.528;2022-10-16T07:12:05;15.60;85.90
40622;DHT22;26324;52.040;11.528;2022-10-16T07:14:31;15.60;85.80
40622;DHT22;26324;52.040;11.528;2022-10-16T07:16:56;15.70;85.80
40622;DHT22;26324;52.040;11.528;2022-10-16T07:19:22;15.60;85.60
40622;DHT22;26324;52.040;11.528;2022-10-16T07:21:47;15.60;85.80
40622;DHT22;26324;52.040;11.528;2022-10-16T07:24:15;15.70;85.70
40622;DHT22;26324;52.040;11.528;2022-10-16T07:26:43;15.80;85.50
40622;DHT22;26324;52.040;11.528;2022-10-16T07:29:17;15.70;85.50
40622;DHT22;26324;52.040;11.528;2022-10-16T07:31:44;15.80;85.40
40622;DHT22;26324;52.040;11.528;2022-10-16T07:34:11;15.90;85.10
40622;DHT22;26324;52.040;11.528;2022-10-16T07:36:37;15.80;85.10
40622;DHT22;26324;52.040;11.528;2022-10-16T07:39:03;15.80;85.20
40622;DHT22;26324;52.040;11.528;2022-10-16T07:41:28;15.80;85.30
40622;DHT22;26324;52.040;11.528;2022-10-16T07:43:55;15.80;85.40
40622;DHT22;26324;52.040;11.528;2022-10-16T07:46:22;15.90;85.40
40622;DHT22;26324;52.040;11.528;2022-10-16T07:48:48;15.90;85.20
40622;DHT22;26324;52.040;11.528;2022-10-16T07:51:16;16.00;85.20
40622;DHT22;26324;52.040;11.528;2022-10-16T07:53:42;16.00;85.30
40622;DHT22;26324;52.040;11.528;2022-10-16T07:56:08;15.90;85.30
40622;DHT22;26324;52.040;11.528;2022-10-16T07:58:34;15.90;85.20
40622;DHT22;26324;52.040;11.528;2022-10-16T08:01:10;15.90;85.40
40622;DHT22;26324;52.040;11.528;2022-10-16T08:03:36;15.80;85.30
40622;DHT22;26324;52.040;11.528;2022-10-16T08:06:02;15.80;85.10
40622;DHT22;26324;52.040;11.528;2022-10-16T08:08:28;15.80;85.00
40622;DHT22;26324;52.040;11.528;2022-10-16T08:10:54;15.90;84.70
40622;DHT22;26324;52.040;11.528;2022-10-16T08:13:20;15.80;84.60
40622;DHT22;26324;52.040;11.528;2022-10-16T08:15:46;15.80;84.30
40622;DHT22;26324;52.040;11.528;2022-10-16T08:18:13;16.00;83.90
40622;DHT22;26324;52.040;11.528;2022-10-16T08:20:40;16.00;83.70
40622;DHT22;26324;52.040;11.528;2022-10-16T08:23:06;16.00;83.50
40622;DHT22;26324;52.040;11.528;2022-10-16T08:25:35;16.00;83.00
40622;DHT22;26324;52.040;11.528;2022-10-16T08:28:03;16.10;82.30
40622;DHT22;26324;52.040;11.528;2022-10-16T08:30:30;16.30;81.90
40622;DHT22;26324;52.040;11.528;2022-10-16T08:32:55;16.40;81.00
40622;DHT22;26324;52.040;11.528;2022-10-16T08:35:21;16.60;80.60
40622;DHT22;26324;52.040;11.528;2022-10-16T08:37:46;16.80;80.30
40622;DHT22;26324;52.040;11.528;2022-10-16T08:40:24;17.10;78.90
40622;DHT22;26324;52.040;11.528;2022-10-16T08:45:47;17.30;77.00
40622;DHT22;26324;52.040;11.528;2022-10-16T08:48:40;17.40;76.30
40622;DHT22;26324;52.040;11.528;2022-10-16T08:51:10;17.50;75.90
40622;DHT22;26324;52.040;11.528;2022-10-16T08:53:43;17.50;75.50
40622;DHT22;26324;52.040;11.528;2022-10-16T08:56:10;17.60;75.50
40622;DHT22;26324;52.040;11.528;2022-10-16T08:58:36;17.70;74.70
40622;DHT22;26324;52.040;11.528;2022-10-16T09:01:03;17.60;74.90
40622;DHT22;26324;52.040;11.528;2022-10-16T09:06:25;17.60;74.80
40622;DHT22;26324;52.040;11.528;2022-10-16T09:11:37;18.00;74.00
40622;DHT22;26324;52.040;11.528;2022-10-16T09:16:51;18.30;73.50
40622;DHT22;26324;52.040;11.528;2022-10-16T09:19:54;18.40;71.80
40622;DHT22;26324;52.040;11.528;2022-10-16T09:22:18;18.30;71.40
40622;DHT22;26324;52.040;11.528;2022-10-16T09:24:47;18.20;72.10
40622;DHT22;26324;52.040;11.528;2022-10-16T09:27:14;18.20;71.30
40622;DHT22;26324;52.040;11.528;2022-10-16T09:29:40;18.10;71.90
40622;DHT22;26324;52.040;11.528;2022-10-16T09:32:19;18.10;71.70
40622;DHT22;26324;52.040;11.528;2022-10-16T09:34:49;18.30;71.90
40622;DHT22;26324;52.040;11.528;2022-10-16T09:37:18;18.30;71.70
40622;DHT22;26324;52.040;11.528;2022-10-16T09:39:47;18.40;71.20
40622;DHT22;26324;52.040;11.528;2022-10-16T09:44:49;18.40;70.60
40622;DHT22;26324;52.040;11.528;2022-10-16T09:47:18;18.40;70.70
40622;DHT22;26324;52.040;11.528;2022-10-16T09:49:57;18.50;70.70
40622;DHT22;26324;52.040;11.528;2022-10-16T09:52:25;18.80;70.40
40622;DHT22;26324;52.040;11.528;2022-10-16T09:54:51;19.00;69.30
40622;DHT22;26324;52.040;11.528;2022-10-16T09:57:17;19.00;69.20
40622;DHT22;26324;52.040;11.528;2022-10-16T09:59:52;19.50;68.60
40622;DHT22;26324;52.040;11.528;2022-10-16T10:02:19;19.70;65.80
40622;DHT22;26324;52.040;11.528;2022-10-16T10:04:52;19.60;64.90
40622;DHT22;26324;52.040;11.528;2022-10-16T10:07:27;19.40;66.10
40622;DHT22;26324;52.040;11.528;2022-10-16T10:09:54;19.20;66.90
40622;DHT22;26324;52.040;11.528;2022-10-16T10:12:27;19.30;66.90
40622;DHT22;26324;52.040;11.528;2022-10-16T10:15:07;19.30;66.40
40622;DHT22;26324;52.040;11.528;2022-10-16T10:17:46;19.50;64.50
40622;DHT22;26324;52.040;11.528;2022-10-16T10:22:43;20.00;62.50
40622;DHT22;26324;52.040;11.528;2022-10-16T10:33:29;19.30;63.60
40622;DHT22;26324;52.040;11.528;2022-10-16T10:41:59;19.20;63.60
40622;DHT22;26324;52.040;11.528;2022-10-16T10:55:46;19.10;62.90
40622;DHT22;26324;52.040;11.528;2022-10-16T11:01:07;19.10;62.40
40622;DHT22;26324;52.040;11.528;2022-10-16T11:04:01;19.30;61.80
40622;DHT22;26324;52.040;11.528;2022-10-16T11:06:46;19.30;61.80
40622;DHT22;26324;52.040;11.528;2022-10-16T11:09:15;19.40;59.30
40622;DHT22;26324;52.040;11.528;2022-10-16T11:11:47;19.50;58.50
40622;DHT22;26324;52.040;11.528;2022-10-16T11:14:23;19.50;57.60
40622;DHT22;26324;52.040;11.528;2022-10-16T11:16:58;19.50;58.30
40622;DHT22;26324;52.040;11.528;2022-10-16T11:22:22;19.80;56.80
40622;DHT22;26324;52.040;11.528;2022-10-16T11:25:13;20.00;56.30
40622;DHT22;26324;52.040;11.528;2022-10-16T11:27:54;20.50;55.90
40622;DHT22;26324;52.040;11.528;2022-10-16T11:30:25;20.60;55.30
40622;DHT22;26324;52.040;11.528;2022-10-16T11:35:59;20.40;54.50
40622;DHT22;26324;52.040;11.528;2022-10-16T11:38:41;20.50;54.90
40622;DHT22;26324;52.040;11.528;2022-10-16T11:41:18;20.40;53.10
40622;DHT22;26324;52.040;11.528;2022-10-16T11:44:42;20.30;53.60
40622;DHT22;26324;52.040;11.528;2022-10-16T11:46:48;20.60;53.00
40622;DHT22;26324;52.040;11.528;2022-10-16T11:49:18;20.80;52.90
40622;DHT22;26324;52.040;11.528;2022-10-16T11:52:24;21.10;51.60
40622;DHT22;26324;52.040;11.528;2022-10-16T11:54:58;21.30;51.30
40622;DHT22;26324;52.040;11.528;2022-10-16T11:57:27;21.40;51.40
40622;DHT22;26324;52.040;11.528;2022-10-16T11:59:58;21.60;51.10
40622;DHT22;26324;52.040;11.528;2022-10-16T12:02:52;21.80;49.70
40622;DHT22;26324;52.040;11.528;2022-10-16T12:05:40;21.90;50.10
40622;DHT22;26324;52.040;11.528;2022-10-16T12:08:15;21.70;49.30
40622;DHT22;26324;52.040;11.528;2022-10-16T12:10:44;21.60;50.00
40622;DHT22;26324;52.040;11.528;2022-10-16T12:13:33;21.50;49.50
40622;DHT22;26324;52.040;11.528;2022-10-16T12:18:38;21.40;49.10
40622;DHT22;26324;52.040;11.528;2022-10-16T12:21:05;21.40;49.20
40622;DHT22;26324;52.040;11.528;2022-10-16T12:23:36;21.20;49.40
40622;DHT22;26324;52.040;11.528;2022-10-16T12:26:02;21.00;50.10
40622;DHT22;26324;52.040;11.528;2022-10-16T12:28:33;21.00;50.30
40622;DHT22;26324;52.040;11.528;2022-10-16T12:31:01;21.10;50.50
40622;DHT22;26324;52.040;11.528;2022-10-16T12:33:30;21.40;49.70
40622;DHT22;26324;52.040;11.528;2022-10-16T12:35:58;21.90;48.40
40622;DHT22;26324;52.040;11.528;2022-10-16T12:38:30;21.90;48.50
40622;DHT22;26324;52.040;11.528;2022-10-16T12:41:01;22.00;48.60
40622;DHT22;26324;52.040;11.528;2022-10-16T12:43:36;22.30;48.20
40622;DHT22;26324;52.040;11.528;2022-10-16T12:48:37;22.50;46.60
40622;DHT22;26324;52.040;11.528;2022-10-16T12:54:19;21.80;48.70
40622;DHT22;26324;52.040;11.528;2022-10-16T13:00:12;21.10;50.70
40622;DHT22;26324;52.040;11.528;2022-10-16T13:11:20;24.90;41.10
40622;DHT22;26324;52.040;11.528;2022-10-16T13:19:42;27.20;35.80
40622;DHT22;26324;52.040;11.528;2022-10-16T13:22:16;27.50;34.10
40622;DHT22;26324;52.040;11.528;2022-10-16T13:27:56;26.70;34.90
40622;DHT22;26324;52.040;11.528;2022-10-16T13:30:42;27.80;33.60
40622;DHT22;26324;52.040;11.528;2022-10-16T13:33:36;28.70;32.00
40622;DHT22;26324;52.040;11.528;2022-10-16T13:36:04;29.80;30.30
40622;DHT22;26324;52.040;11.528;2022-10-16T13:38:31;30.40;29.30
40622;DHT22;26324;52.040;11.528;2022-10-16T13:41:05;30.30;28.90
40622;DHT22;26324;52.040;11.528;2022-10-16T13:43:37;28.80;31.30
40622;DHT22;26324;52.040;11.528;2022-10-16T13:46:13;27.60;32.30
40622;DHT22;26324;52.040;11.528;2022-10-16T13:48:38;26.40;34.80
40622;DHT22;26324;52.040;11.528;2022-10-16T13:51:10;25.70;36.50
40622;DHT22;26324;52.040;11.528;2022-10-16T13:53:37;26.00;36.40
40622;DHT22;26324;52.040;11.528;2022-10-16T13:56:05;27.20;34.20
40622;DHT22;26324;52.040;11.528;2022-10-16T13:58:31;28.50;32.50
40622;DHT22;26324;52.040;11.528;2022-10-16T14:01:05;29.20;31.20
40622;DHT22;26324;52.040;11.528;2022-10-16T14:03:32;30.00;29.80
40622;DHT22;26324;52.040;11.528;2022-10-16T14:06:03;30.00;29.90
40622;DHT22;26324;52.040;11.528;2022-10-16T14:08:30;30.50;28.60
40622;DHT22;26324;52.040;11.528;2022-10-16T14:11:01;30.50;28.60
40622;DHT22;26324;52.040;11.528;2022-10-16T14:13:50;30.40;29.20
40622;DHT22;26324;52.040;11.528;2022-10-16T14:16:42;31.10;27.70
40622;DHT22;26324;52.040;11.528;2022-10-16T14:19:26;30.50;28.10
40622;DHT22;26324;52.040;11.528;2022-10-16T14:21:53;30.70;28.00
40622;DHT22;26324;52.040;11.528;2022-10-16T14:24:34;31.30;27.20
40622;DHT22;26324;52.040;11.528;2022-10-16T14:27:01;32.50;26.80
40622;DHT22;26324;52.040;11.528;2022-10-16T14:29:29;33.10;24.90
40622;DHT22;26324;52.040;11.528;2022-10-16T14:32:00;31.70;26.40
40622;DHT22;26324;52.040;11.528;2022-10-16T14:34:34;29.30;29.20
40622;DHT22;26324;52.040;11.528;2022-10-16T14:37:17;27.50;32.60
40622;DHT22;26324;52.040;11.528;2022-10-16T14:39:50;26.20;35.10
40622;DHT22;26324;52.040;11.528;2022-10-16T14:42:21;24.80;37.40
40622;DHT22;26324;52.040;11.528;2022-10-16T14:44:50;24.00;38.80
40622;DHT22;26324;52.040;11.528;2022-10-16T14:47:19;23.40;40.50
40622;DHT22;26324;52.040;11.528;2022-10-16T14:49:47;23.20;41.70
40622;DHT22;26324;52.040;11.528;2022-10-16T14:52:13;25.30;38.30
40622;DHT22;26324;52.040;11.528;2022-10-16T14:54:40;28.20;35.00
40622;DHT22;26324;52.040;11.528;2022-10-16T14:57:05;30.70;29.90
40622;DHT22;26324;52.040;11.528;2022-10-16T14:59:42;32.50;26.30
40622;DHT22;26324;52.040;11.528;2022-10-16T15:02:34;33.60;25.80
40622;DHT22;26324;52.040;11.528;2022-10-16T15:07:40;34.70;23.60
40622;DHT22;26324;52.040;11.528;2022-10-16T15:10:05;35.10;23.30
40622;DHT22;26324;52.040;11.528;2022-10-16T15:12:31;35.40;22.80
40622;DHT22;26324;52.040;11.528;2022-10-16T15:14:56;35.60;23.30
40622;DHT22;26324;52.040;11.528;2022-10-16T15:17:22;35.60;22.50
40622;DHT22;26324;52.040;11.528;2022-10-16T15:19:47;35.50;22.90
40622;DHT22;26324;52.040;11.528;2022-10-16T15:22:13;34.80;23.00
40622;DHT22;26324;52.040;11.528;2022-10-16T15:24:39;34.20;23.80
40622;DHT22;26324;52.040;11.528;2022-10-16T15:27:04;33.90;24.40
40622;DHT22;26324;52.040;11.528;2022-10-16T15:29:30;32.80;25.60
40622;DHT22;26324;52.040;11.528;2022-10-16T15:31:56;30.70;28.00
40622;DHT22;26324;52.040;11.528;2022-10-16T15:34:21;28.70;31.00
40622;DHT22;26324;52.040;11.528;2022-10-16T15:36:47;27.40;33.40
40622;DHT22;26324;52.040;11.528;2022-10-16T15:39:15;26.00;35.90
40622;DHT22;26324;52.040;11.528;2022-10-16T15:41:41;24.80;38.10
40622;DHT22;26324;52.040;11.528;2022-10-16T15:44:07;23.60;39.20
40622;DHT22;26324;52.040;11.528;2022-10-16T15:46:34;22.90;40.70
40622;DHT22;26324;52.040;11.528;2022-10-16T15:49:00;22.20;41.40
40622;DHT22;26324;52.040;11.528;2022-10-16T15:51:27;21.60;42.80
40622;DHT22;26324;52.040;11.528;2022-10-16T15:53:55;21.10;43.60
40622;DHT22;26324;52.040;11.528;2022-10-16T15:56:22;20.70;44.60
40622;DHT22;26324;52.040;11.528;2022-10-16T15:58:49;20.50;45.60
40622;DHT22;26324;52.040;11.528;2022-10-16T16:01:15;20.30;46.50
40622;DHT22;26324;52.040;11.528;2022-10-16T16:03:41;19.90;47.60
40622;DHT22;26324;52.040;11.528;2022-10-16T16:06:09;19.70;48.20
40622;DHT22;26324;52.040;11.528;2022-10-16T16:08:35;19.50;49.00
40622;DHT22;26324;52.040;11.528;2022-10-16T16:11:12;19.40;49.00
40622;DHT22;26324;52.040;11.528;2022-10-16T16:13:38;19.20;49.40
40622;DHT22;26324;52.040;11.528;2022-10-16T16:16:08;19.10;49.70
40622;DHT22;26324;52.040;11.528;2022-10-16T16:18:34;19.00;49.90
40622;DHT22;26324;52.040;11.528;2022-10-16T16:21:00;19.00;50.40
40622;DHT22;26324;52.040;11.528;2022-10-16T16:23:25;18.90;51.40
40622;DHT22;26324;52.040;11.528;2022-10-16T16:28:35;18.80;51.40
40622;DHT22;26324;52.040;11.528;2022-10-16T16:31:02;18.90;51.50
40622;DHT22;26324;52.040;11.528;2022-10-16T16:33:27;18.80;52.40
40622;DHT22;26324;52.040;11.528;2022-10-16T16:36:01;18.70;53.50
40622;DHT22;26324;52.040;11.528;2022-10-16T16:38:27;18.60;52.90
40622;DHT22;26324;52.040;11.528;2022-10-16T16:40:53;18.50;53.50
40622;DHT22;26324;52.040;11.528;2022-10-16T16:43:22;18.30;53.80
40622;DHT22;26324;52.040;11.528;2022-10-16T16:45:47;18.20;54.40
40622;DHT22;26324;52.040;11.528;2022-10-16T16:48:13;18.00;55.20
40622;DHT22;26324;52.040;11.528;2022-10-16T16:50:38;17.80;56.90
40622;DHT22;26324;52.040;11.528;2022-10-16T16:53:04;17.60;57.50
40622;DHT22;26324;52.040;11.528;2022-10-16T16:55:29;17.50;57.80
40622;DHT22;26324;52.040;11.528;2022-10-16T16:57:55;17.40;57.30
40622;DHT22;26324;52.040;11.528;2022-10-16T17:00:22;17.30;58.00
40622;DHT22;26324;52.040;11.528;2022-10-16T17:02:48;17.10;58.90